sensor_id;sensor_type;location;lat;lon;timestamp;pressure;altitude;pressure_sealevel;temperature;humidity
54122;BME280;40029;58.708;50.190;2024-03-06T00:01:16;100803.94;;;-13.56;67.88
54122;BME280;40029;58.708;50.190;2024-03-06T00:03:47;100803.94;;;-13.56;67.29
54122;BME280;40029;58.708;50.190;2024-03-06T00:06:19;100811.91;;;-13.51;66.83
54122;BME280;40029;58.708;50.190;2024-03-06T00:08:50;100808.69;;;-13.49;67.92
54122;BME280;40029;58.708;50.190;2024-03-06T00:11:22;100811.34;;;-13.47;67.21
54122;BME280;40029;58.708;50.190;2024-03-06T00:13:53;100809.91;;;-13.44;67.25
54122;BME280;40029;58.708;50.190;2024-03-06T00:16:24;100805.91;;;-13.40;67.71
54122;BME280;40029;58.708;50.190;2024-03-06T00:18:56;100804.03;;;-13.43;67.63
54122;BME280;40029;58.708;50.190;2024-03-06T00:21:27;100801.81;;;-13.38;67.53
54122;BME280;40029;58.708;50.190;2024-03-06T00:24:18;100807.31;;;-13.32;67.93
54122;BME280;40029;58.708;50.190;2024-03-06T00:26:49;100805.38;;;-13.23;67.79
54122;BME280;40029;58.708;50.190;2024-03-06T00:29:39;100805.63;;;-13.19;68.08
54122;BME280;40029;58.708;50.190;2024-03-06T00:32:10;100800.81;;;-13.15;67.13
54122;BME280;40029;58.708;50.190;2024-03-06T00:34:41;100797.84;;;-13.09;66.67
54122;BME280;40029;58.708;50.190;2024-03-06T00:37:12;100793.06;;;-13.05;66.90
54122;BME280;40029;58.708;50.190;2024-03-06T00:39:43;100791.84;;;-12.98;66.80
54122;BME280;40029;58.708;50.190;2024-03-06T00:42:15;100801.78;;;-13.01;66.89
54122;BME280;40029;58.708;50.190;2024-03-06T00:44:46;100800.22;;;-12.99;67.35
54122;BME280;40029;58.708;50.190;2024-03-06T00:47:17;100806.13;;;-13.00;67.57
54122;BME280;40029;58.708;50.190;2024-03-06T00:49:48;100794.38;;;-12.98;67.29
54122;BME280;40029;58.708;50.190;2024-03-06T00:52:19;100797.09;;;-12.95;67.26
54122;BME280;40029;58.708;50.190;2024-03-06T00:54:51;100795.94;;;-13.00;67.11
54122;BME280;40029;58.708;50.190;2024-03-06T00:57:22;100790.25;;;-12.96;66.73
54122;BME280;40029;58.708;50.190;2024-03-06T00:59:53;100797.09;;;-12.95;66.25
54122;BME280;40029;58.708;50.190;2024-03-06T01:02:24;100799.97;;;-12.90;66.33
54122;BME280;40029;58.708;50.190;2024-03-06T01:04:56;100785.59;;;-12.90;66.61
54122;BME280;40029;58.708;50.190;2024-03-06T01:07:27;100785.22;;;-12.83;66.27
54122;BME280;40029;58.708;50.190;2024-03-06T01:09:59;100782.31;;;-12.75;66.24
54122;BME280;40029;58.708;50.190;2024-03-06T01:12:30;100778.59;;;-12.67;66.37
54122;BME280;40029;58.708;50.190;2024-03-06T01:15:01;100779.59;;;-12.65;66.98
54122;BME280;40029;58.708;50.190;2024-03-06T01:17:35;100770.13;;;-12.54;66.73
54122;BME280;40029;58.708;50.190;2024-03-06T01:20:06;100780.25;;;-12.43;66.38
54122;BME280;40029;58.708;50.190;2024-03-06T01:22:56;100777.81;;;-12.41;66.00
54122;BME280;40029;58.708;50.190;2024-03-06T01:25:46;100772.22;;;-12.35;65.99
54122;BME280;40029;58.708;50.190;2024-03-06T01:28:18;100761.63;;;-12.28;66.06
54122;BME280;40029;58.708;50.190;2024-03-06T01:31:07;100761.34;;;-12.19;65.99
54122;BME280;40029;58.708;50.190;2024-03-06T01:33:39;100764.38;;;-12.12;66.09
54122;BME280;40029;58.708;50.190;2024-03-06T01:36:10;100770.88;;;-12.03;66.30
54122;BME280;40029;58.708;50.190;2024-03-06T01:38:41;100761.72;;;-11.87;65.62
54122;BME280;40029;58.708;50.190;2024-03-06T01:41:16;100761.13;;;-11.82;65.51
54122;BME280;40029;58.708;50.190;2024-03-06T01:43:48;100766.63;;;-11.76;65.31
54122;BME280;40029;58.708;50.190;2024-03-06T01:46:19;100765.44;;;-11.68;64.72
54122;BME280;40029;58.708;50.190;2024-03-06T01:49:09;100769.16;;;-11.63;65.13
54122;BME280;40029;58.708;50.190;2024-03-06T01:51:47;100769.44;;;-11.58;64.35
54122;BME280;40029;58.708;50.190;2024-03-06T01:54:38;100771.22;;;-11.57;64.29
54122;BME280;40029;58.708;50.190;2024-03-06T01:57:28;100768.66;;;-11.57;64.96
54122;BME280;40029;58.708;50.190;2024-03-06T02:00:01;100757.25;;;-11.49;64.97
54122;BME280;40029;58.708;50.190;2024-03-06T02:02:36;100757.34;;;-11.48;64.32
54122;BME280;40029;58.708;50.190;2024-03-06T02:05:08;100766.97;;;-11.43;64.39
54122;BME280;40029;58.708;50.190;2024-03-06T02:07:39;100760.97;;;-11.44;64.65
54122;BME280;40029;58.708;50.190;2024-03-06T02:10:12;100772.75;;;-11.46;64.96
54122;BME280;40029;58.708;50.190;2024-03-06T02:12:44;100765.31;;;-11.43;64.39
54122;BME280;40029;58.708;50.190;2024-03-06T02:15:17;100760.97;;;-11.44;64.51
54122;BME280;40029;58.708;50.190;2024-03-06T02:17:48;100761.53;;;-11.35;63.63
54122;BME280;40029;58.708;50.190;2024-03-06T02:20:23;100758.72;;;-11.39;64.36
54122;BME280;40029;58.708;50.190;2024-03-06T02:22:54;100759.81;;;-11.36;64.43
54122;BME280;40029;58.708;50.190;2024-03-06T02:25:44;100761.53;;;-11.35;63.35
54122;BME280;40029;58.708;50.190;2024-03-06T02:28:18;100758.44;;;-11.44;64.60
54122;BME280;40029;58.708;50.190;2024-03-06T02:31:07;100749.19;;;-11.42;64.71
54122;BME280;40029;58.708;50.190;2024-03-06T02:33:38;100745.78;;;-11.56;64.57
54122;BME280;40029;58.708;50.190;2024-03-06T02:36:11;100746.88;;;-11.52;64.39
54122;BME280;40029;58.708;50.190;2024-03-06T02:38:43;100740.00;;;-11.53;64.52
54122;BME280;40029;58.708;50.190;2024-03-06T02:41:14;100750.09;;;-11.55;63.96
54122;BME280;40029;58.708;50.190;2024-03-06T02:43:46;100749.03;;;-11.58;64.10
54122;BME280;40029;58.708;50.190;2024-03-06T02:46:17;100747.19;;;-11.61;64.08
54122;BME280;40029;58.708;50.190;2024-03-06T02:48:49;100752.06;;;-11.64;64.15
54122;BME280;40029;58.708;50.190;2024-03-06T02:51:21;100755.13;;;-11.70;64.49
54122;BME280;40029;58.708;50.190;2024-03-06T02:53:52;100759.47;;;-11.69;64.33
54122;BME280;40029;58.708;50.190;2024-03-06T02:56:24;100754.34;;;-11.69;64.08
54122;BME280;40029;58.708;50.190;2024-03-06T02:58:55;100761.03;;;-11.71;64.13
54122;BME280;40029;58.708;50.190;2024-03-06T03:01:26;100763.69;;;-11.82;64.40
54122;BME280;40029;58.708;50.190;2024-03-06T03:03:59;100756.63;;;-11.87;64.05
54122;BME280;40029;58.708;50.190;2024-03-06T03:06:49;100756.38;;;-11.91;63.95
54122;BME280;40029;58.708;50.190;2024-03-06T03:09:20;100768.13;;;-12.07;64.25
54122;BME280;40029;58.708;50.190;2024-03-06T03:11:52;100766.75;;;-12.01;64.13
54122;BME280;40029;58.708;50.190;2024-03-06T03:14:23;100770.47;;;-12.10;64.68
54122;BME280;40029;58.708;50.190;2024-03-06T03:16:54;100770.88;;;-12.03;64.08
54122;BME280;40029;58.708;50.190;2024-03-06T03:19:25;100775.97;;;-12.03;63.49
54122;BME280;40029;58.708;50.190;2024-03-06T03:21:57;100763.63;;;-11.97;64.03
54122;BME280;40029;58.708;50.190;2024-03-06T03:24:46;100771.16;;;-11.99;63.73
54122;BME280;40029;58.708;50.190;2024-03-06T03:27:18;100770.41;;;-11.98;63.32
54122;BME280;40029;58.708;50.190;2024-03-06T03:29:49;100758.72;;;-11.94;63.48
54122;BME280;40029;58.708;50.190;2024-03-06T03:32:20;100767.53;;;-11.89;63.72
54122;BME280;40029;58.708;50.190;2024-03-06T03:34:52;100771.22;;;-11.84;63.66
54122;BME280;40029;58.708;50.190;2024-03-06T03:37:42;100766.75;;;-12.01;64.40
54122;BME280;40029;58.708;50.190;2024-03-06T03:40:14;100756.16;;;-11.94;63.86
54122;BME280;40029;58.708;50.190;2024-03-06T03:43:04;100764.16;;;-11.88;63.59
54122;BME280;40029;58.708;50.190;2024-03-06T03:45:37;100770.50;;;-11.96;64.82
54122;BME280;40029;58.708;50.190;2024-03-06T03:48:09;100766.22;;;-11.82;63.72
54122;BME280;40029;58.708;50.190;2024-03-06T03:50:40;100768.38;;;-11.75;63.73
54122;BME280;40029;58.708;50.190;2024-03-06T03:53:11;100775.16;;;-11.76;63.98
54122;BME280;40029;58.708;50.190;2024-03-06T03:55:42;100775.44;;;-11.71;63.39
54122;BME280;40029;58.708;50.190;2024-03-06T03:58:14;100774.47;;;-11.73;63.83
54122;BME280;40029;58.708;50.190;2024-03-06T04:00:45;100768.56;;;-11.59;63.14
54122;BME280;40029;58.708;50.190;2024-03-06T04:03:16;100773.78;;;-11.57;63.33
54122;BME280;40029;58.708;50.190;2024-03-06T04:05:48;100766.28;;;-11.41;62.98
54122;BME280;40029;58.708;50.190;2024-03-06T04:08:19;100773.69;;;-11.31;62.43
54122;BME280;40029;58.708;50.190;2024-03-06T04:10:50;100762.81;;;-11.28;63.12
54122;BME280;40029;58.708;50.190;2024-03-06T04:13:22;100763.13;;;-11.09;62.46
54122;BME280;40029;58.708;50.190;2024-03-06T04:15:53;100763.78;;;-10.98;62.25
54122;BME280;40029;58.708;50.190;2024-03-06T04:18:25;100769.53;;;-10.87;62.09
54122;BME280;40029;58.708;50.190;2024-03-06T04:20:56;100769.91;;;-10.81;61.62
54122;BME280;40029;58.708;50.190;2024-03-06T04:23:27;100761.03;;;-10.73;61.78
54122;BME280;40029;58.708;50.190;2024-03-06T04:26:17;100754.44;;;-10.69;61.68
54122;BME280;40029;58.708;50.190;2024-03-06T04:28:48;100760.50;;;-10.67;61.27
54122;BME280;40029;58.708;50.190;2024-03-06T04:31:19;100756.56;;;-10.47;61.11
54122;BME280;40029;58.708;50.190;2024-03-06T04:33:51;100751.00;;;-10.55;61.52
54122;BME280;40029;58.708;50.190;2024-03-06T04:36:40;100753.47;;;-10.71;62.41
54122;BME280;40029;58.708;50.190;2024-03-06T04:39:11;100758.50;;;-10.58;60.88
54122;BME280;40029;58.708;50.190;2024-03-06T04:41:43;100745.63;;;-10.44;61.61
54122;BME280;40029;58.708;50.190;2024-03-06T04:44:14;100743.34;;;-10.40;61.36
54122;BME280;40029;58.708;50.190;2024-03-06T04:47:04;100745.72;;;-10.43;62.09
54122;BME280;40029;58.708;50.190;2024-03-06T04:49:35;100753.09;;;-10.48;61.64
54122;BME280;40029;58.708;50.190;2024-03-06T04:52:07;100750.31;;;-10.37;61.37
54122;BME280;40029;58.708;50.190;2024-03-06T04:54:39;100741.31;;;-10.31;61.13
54122;BME280;40029;58.708;50.190;2024-03-06T04:57:10;100744.44;;;-10.20;61.16
54122;BME280;40029;58.708;50.190;2024-03-06T04:59:41;100753.13;;;-10.33;61.14
54122;BME280;40029;58.708;50.190;2024-03-06T05:02:13;100746.06;;;-10.37;62.15
54122;BME280;40029;58.708;50.190;2024-03-06T05:05:04;100753.13;;;-10.33;62.22
54122;BME280;40029;58.708;50.190;2024-03-06T05:07:36;100746.38;;;-10.16;62.00
54122;BME280;40029;58.708;50.190;2024-03-06T05:10:08;100739.75;;;-9.97;61.19
54122;BME280;40029;58.708;50.190;2024-03-06T05:12:39;100741.41;;;-9.98;61.79
54122;BME280;40029;58.708;50.190;2024-03-06T05:15:11;100737.56;;;-10.06;62.20
54122;BME280;40029;58.708;50.190;2024-03-06T05:17:42;100743.97;;;-9.83;61.69
54122;BME280;40029;58.708;50.190;2024-03-06T05:20:32;100734.56;;;-9.67;60.96
54122;BME280;40029;58.708;50.190;2024-03-06T05:23:04;100734.97;;;-9.60;60.70
54122;BME280;40029;58.708;50.190;2024-03-06T05:25:35;100730.19;;;-9.54;61.02
54122;BME280;40029;58.708;50.190;2024-03-06T05:28:06;100715.56;;;-9.40;60.62
54122;BME280;40029;58.708;50.190;2024-03-06T05:30:37;100724.22;;;-9.21;60.31
54122;BME280;40029;58.708;50.190;2024-03-06T05:33:08;100727.44;;;-9.25;59.74
54122;BME280;40029;58.708;50.190;2024-03-06T05:35:39;100719.41;;;-9.15;60.03
54122;BME280;40029;58.708;50.190;2024-03-06T05:38:10;100713.97;;;-9.05;59.45
54122;BME280;40029;58.708;50.190;2024-03-06T05:40:42;100718.16;;;-9.07;59.92
54122;BME280;40029;58.708;50.190;2024-03-06T05:43:16;100713.50;;;-9.14;59.68
54122;BME280;40029;58.708;50.190;2024-03-06T05:45:47;100722.31;;;-8.93;59.56
54122;BME280;40029;58.708;50.190;2024-03-06T05:48:18;100715.72;;;-8.87;59.11
54122;BME280;40029;58.708;50.190;2024-03-06T05:50:49;100718.44;;;-8.68;59.14
54122;BME280;40029;58.708;50.190;2024-03-06T05:53:21;100715.03;;;-8.67;58.96
54122;BME280;40029;58.708;50.190;2024-03-06T05:56:11;100713.94;;;-8.56;58.98
54122;BME280;40029;58.708;50.190;2024-03-06T05:58:42;100716.38;;;-8.39;57.90
54122;BME280;40029;58.708;50.190;2024-03-06T06:01:18;100719.69;;;-8.60;58.36
54122;BME280;40029;58.708;50.190;2024-03-06T06:03:52;100718.53;;;-8.48;58.18
54122;BME280;40029;58.708;50.190;2024-03-06T06:06:23;100712.44;;;-8.32;58.91
54122;BME280;40029;58.708;50.190;2024-03-06T06:08:55;100716.78;;;-8.31;58.04
54122;BME280;40029;58.708;50.190;2024-03-06T06:11:26;100717.59;;;-8.15;57.52
54122;BME280;40029;58.708;50.190;2024-03-06T06:13:57;100712.31;;;-8.18;57.92
54122;BME280;40029;58.708;50.190;2024-03-06T06:16:35;100706.59;;;-8.12;57.41
54122;BME280;40029;58.708;50.190;2024-03-06T06:19:06;100711.03;;;-8.09;57.62
54122;BME280;40029;58.708;50.190;2024-03-06T06:21:37;100705.72;;;-8.12;57.92
54122;BME280;40029;58.708;50.190;2024-03-06T06:24:09;100701.22;;;-7.81;57.05
54122;BME280;40029;58.708;50.190;2024-03-06T06:26:40;100701.56;;;-7.55;56.50
54122;BME280;40029;58.708;50.190;2024-03-06T06:29:13;100690.34;;;-7.57;55.96
54122;BME280;40029;58.708;50.190;2024-03-06T06:31:44;100698.19;;;-7.54;56.87
54122;BME280;40029;58.708;50.190;2024-03-06T06:34:33;100687.66;;;-7.41;56.27
54122;BME280;40029;58.708;50.190;2024-03-06T06:37:05;100687.66;;;-7.21;55.46
54122;BME280;40029;58.708;50.190;2024-03-06T06:39:36;100685.44;;;-7.13;55.41
54122;BME280;40029;58.708;50.190;2024-03-06T06:42:07;100693.34;;;-7.09;54.91
54122;BME280;40029;58.708;50.190;2024-03-06T06:44:57;100695.78;;;-7.12;55.41
54122;BME280;40029;58.708;50.190;2024-03-06T06:47:48;100683.59;;;-7.55;55.87
54122;BME280;40029;58.708;50.190;2024-03-06T06:50:38;100685.38;;;-7.34;55.58
54122;BME280;40029;58.708;50.190;2024-03-06T06:53:09;100684.75;;;-7.29;55.92
54122;BME280;40029;58.708;50.190;2024-03-06T06:55:59;100678.19;;;-7.42;56.70
54122;BME280;40029;58.708;50.190;2024-03-06T06:58:30;100681.94;;;-7.15;56.71
54122;BME280;40029;58.708;50.190;2024-03-06T07:01:01;100686.88;;;-7.01;56.33
54122;BME280;40029;58.708;50.190;2024-03-06T07:03:32;100688.22;;;-7.09;56.45
54122;BME280;40029;58.708;50.190;2024-03-06T07:06:04;100682.28;;;-7.08;56.23
54122;BME280;40029;58.708;50.190;2024-03-06T07:08:35;100685.09;;;-7.02;57.49
54122;BME280;40029;58.708;50.190;2024-03-06T07:11:06;100682.59;;;-7.00;57.37
54122;BME280;40029;58.708;50.190;2024-03-06T07:13:37;100681.75;;;-6.80;57.08
54122;BME280;40029;58.708;50.190;2024-03-06T07:16:09;100679.09;;;-6.62;56.37
54122;BME280;40029;58.708;50.190;2024-03-06T07:18:40;100683.41;;;-6.61;57.05
54122;BME280;40029;58.708;50.190;2024-03-06T07:21:30;100682.28;;;-6.67;57.96
54122;BME280;40029;58.708;50.190;2024-03-06T07:24:01;100684.00;;;-6.87;59.10
54122;BME280;40029;58.708;50.190;2024-03-06T07:26:33;100682.16;;;-6.90;59.49
54122;BME280;40029;58.708;50.190;2024-03-06T07:29:04;100675.03;;;-6.56;58.72
54122;BME280;40029;58.708;50.190;2024-03-06T07:31:37;100675.81;;;-6.57;59.37
54122;BME280;40029;58.708;50.190;2024-03-06T07:34:09;100666.47;;;-6.55;58.53
54122;BME280;40029;58.708;50.190;2024-03-06T07:36:59;100679.91;;;-6.21;57.99
54122;BME280;40029;58.708;50.190;2024-03-06T07:39:31;100679.47;;;-6.10;57.45
54122;BME280;40029;58.708;50.190;2024-03-06T07:42:02;100671.69;;;-6.33;57.55
54122;BME280;40029;58.708;50.190;2024-03-06T07:44:34;100673.91;;;-5.98;57.42
54122;BME280;40029;58.708;50.190;2024-03-06T07:47:07;100675.34;;;-5.60;56.53
54122;BME280;40029;58.708;50.190;2024-03-06T07:49:39;100671.81;;;-5.85;56.84
54122;BME280;40029;58.708;50.190;2024-03-06T07:52:10;100666.56;;;-5.88;57.34
54122;BME280;40029;58.708;50.190;2024-03-06T07:54:42;100670.09;;;-5.86;57.05
54122;BME280;40029;58.708;50.190;2024-03-06T07:57:13;100669.09;;;-5.89;57.30
54122;BME280;40029;58.708;50.190;2024-03-06T07:59:44;100667.97;;;-6.18;58.26
54122;BME280;40029;58.708;50.190;2024-03-06T08:02:15;100666.78;;;-5.59;57.07
54122;BME280;40029;58.708;50.190;2024-03-06T08:05:06;100666.44;;;-5.46;56.42
54122;BME280;40029;58.708;50.190;2024-03-06T08:07:40;100671.53;;;-5.47;56.56
54122;BME280;40029;58.708;50.190;2024-03-06T08:10:13;100671.34;;;-5.52;56.96
54122;BME280;40029;58.708;50.190;2024-03-06T08:12:45;100661.47;;;-5.17;55.66
54122;BME280;40029;58.708;50.190;2024-03-06T08:15:18;100664.16;;;-5.14;55.79
54122;BME280;40029;58.708;50.190;2024-03-06T08:17:50;100667.47;;;-5.18;56.35
54122;BME280;40029;58.708;50.190;2024-03-06T08:20:23;100659.19;;;-4.58;54.94
54122;BME280;40029;58.708;50.190;2024-03-06T08:22:55;100659.13;;;-4.34;53.86
54122;BME280;40029;58.708;50.190;2024-03-06T08:25:27;100662.38;;;-4.67;54.96
54122;BME280;40029;58.708;50.190;2024-03-06T08:27:58;100659.03;;;-4.88;54.69
54122;BME280;40029;58.708;50.190;2024-03-06T08:30:30;100652.22;;;-4.86;53.80
54122;BME280;40029;58.708;50.190;2024-03-06T08:33:04;100648.00;;;-4.58;54.97
54122;BME280;40029;58.708;50.190;2024-03-06T08:35:35;100647.69;;;-4.42;54.21
54122;BME280;40029;58.708;50.190;2024-03-06T08:38:06;100644.34;;;-4.12;53.93
54122;BME280;40029;58.708;50.190;2024-03-06T08:40:37;100649.31;;;-4.18;54.44
54122;BME280;40029;58.708;50.190;2024-03-06T08:43:09;100645.81;;;-4.20;54.46
54122;BME280;40029;58.708;50.190;2024-03-06T08:45:41;100650.97;;;-4.20;54.71
54122;BME280;40029;58.708;50.190;2024-03-06T08:48:12;100636.34;;;-4.20;54.63
54122;BME280;40029;58.708;50.190;2024-03-06T08:50:43;100644.72;;;-4.00;54.73
54122;BME280;40029;58.708;50.190;2024-03-06T08:53:15;100641.69;;;-3.58;52.97
54122;BME280;40029;58.708;50.190;2024-03-06T08:55:47;100631.28;;;-3.59;53.69
54122;BME280;40029;58.708;50.190;2024-03-06T08:58:18;100629.03;;;-3.48;53.19
54122;BME280;40029;58.708;50.190;2024-03-06T09:00:51;100632.53;;;-3.45;52.92
54122;BME280;40029;58.708;50.190;2024-03-06T09:03:22;100629.59;;;-3.59;53.64
54122;BME280;40029;58.708;50.190;2024-03-06T09:05:54;100626.00;;;-3.32;53.53
54122;BME280;40029;58.708;50.190;2024-03-06T09:08:25;100621.53;;;-3.07;52.96
54122;BME280;40029;58.708;50.190;2024-03-06T09:10:56;100620.38;;;-3.19;53.24
54122;BME280;40029;58.708;50.190;2024-03-06T09:13:29;100619.53;;;-3.18;53.99
54122;BME280;40029;58.708;50.190;2024-03-06T09:16:01;100617.19;;;-3.69;55.77
54122;BME280;40029;58.708;50.190;2024-03-06T09:18:50;100625.28;;;-3.58;56.57
54122;BME280;40029;58.708;50.190;2024-03-06T09:21:21;100622.34;;;-3.40;56.12
54122;BME280;40029;58.708;50.190;2024-03-06T09:23:53;100616.47;;;-3.35;56.47
54122;BME280;40029;58.708;50.190;2024-03-06T09:26:43;100611.47;;;-3.59;57.86
54122;BME280;40029;58.708;50.190;2024-03-06T09:29:16;100618.53;;;-3.83;59.48
54122;BME280;40029;58.708;50.190;2024-03-06T09:31:48;100620.16;;;-3.57;58.22
54122;BME280;40029;58.708;50.190;2024-03-06T09:34:19;100619.19;;;-3.60;58.09
54122;BME280;40029;58.708;50.190;2024-03-06T09:37:10;100623.06;;;-3.46;57.64
54122;BME280;40029;58.708;50.190;2024-03-06T09:39:41;100619.41;;;-3.53;57.93
54122;BME280;40029;58.708;50.190;2024-03-06T09:42:14;100615.00;;;-3.57;57.68
54122;BME280;40029;58.708;50.190;2024-03-06T09:44:45;100610.69;;;-3.86;59.15
54122;BME280;40029;58.708;50.190;2024-03-06T09:47:21;100613.97;;;-4.19;60.82
54122;BME280;40029;58.708;50.190;2024-03-06T09:49:56;100614.72;;;-4.23;60.78
54122;BME280;40029;58.708;50.190;2024-03-06T09:52:28;100613.44;;;-4.09;60.24
54122;BME280;40029;58.708;50.190;2024-03-06T09:55:00;100604.09;;;-4.05;60.81
54122;BME280;40029;58.708;50.190;2024-03-06T09:57:31;100605.31;;;-3.64;59.42
54122;BME280;40029;58.708;50.190;2024-03-06T10:00:21;100592.06;;;-3.44;60.00
54122;BME280;40029;58.708;50.190;2024-03-06T10:02:58;100596.34;;;-3.45;59.38
54122;BME280;40029;58.708;50.190;2024-03-06T10:05:34;100594.13;;;-2.99;58.66
54122;BME280;40029;58.708;50.190;2024-03-06T10:08:06;100594.34;;;-2.92;58.94
54122;BME280;40029;58.708;50.190;2024-03-06T10:10:37;100593.69;;;-2.48;57.71
54122;BME280;40029;58.708;50.190;2024-03-06T10:13:08;100590.94;;;-2.19;57.09
54122;BME280;40029;58.708;50.190;2024-03-06T10:15:39;100591.13;;;-2.48;56.77
54122;BME280;40029;58.708;50.190;2024-03-06T10:18:14;100598.53;;;-2.25;55.65
54122;BME280;40029;58.708;50.190;2024-03-06T10:20:46;100595.38;;;-2.14;55.55
54122;BME280;40029;58.708;50.190;2024-03-06T10:23:18;100583.91;;;-2.23;54.67
54122;BME280;40029;58.708;50.190;2024-03-06T10:25:50;100590.66;;;-1.92;54.78
54122;BME280;40029;58.708;50.190;2024-03-06T10:28:26;100585.38;;;-1.97;54.71
54122;BME280;40029;58.708;50.190;2024-03-06T10:31:04;100585.19;;;-2.06;55.50
54122;BME280;40029;58.708;50.190;2024-03-06T10:33:38;100575.16;;;-1.49;53.21
54122;BME280;40029;58.708;50.190;2024-03-06T10:36:10;100581.72;;;-1.65;53.04
54122;BME280;40029;58.708;50.190;2024-03-06T10:38:43;100581.28;;;-1.87;54.62
54122;BME280;40029;58.708;50.190;2024-03-06T10:41:17;100571.56;;;-1.96;55.00
54122;BME280;40029;58.708;50.190;2024-03-06T10:43:54;100579.88;;;-2.10;55.71
54122;BME280;40029;58.708;50.190;2024-03-06T10:46:56;100578.03;;;-2.16;55.63
54122;BME280;40029;58.708;50.190;2024-03-06T10:49:47;100572.16;;;-2.09;55.56
54122;BME280;40029;58.708;50.190;2024-03-06T10:52:19;100577.72;;;-1.90;55.44
54122;BME280;40029;58.708;50.190;2024-03-06T10:54:51;100577.13;;;-2.18;56.13
54122;BME280;40029;58.708;50.190;2024-03-06T10:57:23;100577.69;;;-1.93;55.69
54122;BME280;40029;58.708;50.190;2024-03-06T10:59:57;100575.22;;;-2.25;56.83
54122;BME280;40029;58.708;50.190;2024-03-06T11:02:31;100565.34;;;-2.04;56.47
54122;BME280;40029;58.708;50.190;2024-03-06T11:05:03;100571.81;;;-1.85;55.56
54122;BME280;40029;58.708;50.190;2024-03-06T11:07:36;100569.59;;;-1.66;56.23
54122;BME280;40029;58.708;50.190;2024-03-06T11:10:07;100571.00;;;-1.82;56.46
54122;BME280;40029;58.708;50.190;2024-03-06T11:12:42;100568.13;;;-1.96;56.39
54122;BME280;40029;58.708;50.190;2024-03-06T11:15:15;100565.78;;;-1.84;55.84
54122;BME280;40029;58.708;50.190;2024-03-06T11:17:47;100568.13;;;-1.96;58.41
54122;BME280;40029;58.708;50.190;2024-03-06T11:20:20;100563.13;;;-2.26;57.17
54122;BME280;40029;58.708;50.190;2024-03-06T11:31:13;100574.19;;;-2.70;59.80
54122;BME280;40029;58.708;50.190;2024-03-06T11:33:53;100571.22;;;-2.85;61.16
54122;BME280;40029;58.708;50.190;2024-03-06T11:36:28;100572.41;;;-2.73;61.16
54122;BME280;40029;58.708;50.190;2024-03-06T11:39:07;100571.94;;;-2.91;63.54
54122;BME280;40029;58.708;50.190;2024-03-06T11:41:49;100565.00;;;-2.92;64.34
54122;BME280;40029;58.708;50.190;2024-03-06T11:44:22;100581.88;;;-3.06;65.31
54122;BME280;40029;58.708;50.190;2024-03-06T11:47:12;100566.63;;;-2.96;64.61
54122;BME280;40029;58.708;50.190;2024-03-06T11:49:44;100572.63;;;-2.98;64.95
54122;BME280;40029;58.708;50.190;2024-03-06T11:52:15;100571.09;;;-3.23;66.18
54122;BME280;40029;58.708;50.190;2024-03-06T11:54:46;100567.97;;;-3.12;65.69
54122;BME280;40029;58.708;50.190;2024-03-06T11:57:17;100570.97;;;-3.28;66.15
54122;BME280;40029;58.708;50.190;2024-03-06T11:59:52;100564.38;;;-3.17;65.61
54122;BME280;40029;58.708;50.190;2024-03-06T12:02:23;100566.69;;;-2.94;65.09
54122;BME280;40029;58.708;50.190;2024-03-06T12:04:55;100563.13;;;-2.98;64.91
54122;BME280;40029;58.708;50.190;2024-03-06T12:07:26;100564.22;;;-2.89;64.46
54122;BME280;40029;58.708;50.190;2024-03-06T12:10:17;100556.22;;;-2.97;64.01
54122;BME280;40029;58.708;50.190;2024-03-06T12:12:49;100564.66;;;-3.04;63.79
54122;BME280;40029;58.708;50.190;2024-03-06T12:15:20;100566.81;;;-2.88;63.12
54122;BME280;40029;58.708;50.190;2024-03-06T12:17:54;100556.50;;;-2.86;63.13
54122;BME280;40029;58.708;50.190;2024-03-06T12:20:25;100561.50;;;-2.94;64.08
54122;BME280;40029;58.708;50.190;2024-03-06T12:23:21;100561.31;;;-2.67;62.70
54122;BME280;40029;58.708;50.190;2024-03-06T12:26:07;100558.31;;;-2.49;61.46
54122;BME280;40029;58.708;50.190;2024-03-06T12:28:44;100562.53;;;-2.51;61.71
54122;BME280;40029;58.708;50.190;2024-03-06T12:31:15;100552.19;;;-2.51;61.77
54122;BME280;40029;58.708;50.190;2024-03-06T12:33:56;100554.09;;;-2.44;60.42
54122;BME280;40029;58.708;50.190;2024-03-06T12:36:28;100551.66;;;-2.38;60.73
54122;BME280;40029;58.708;50.190;2024-03-06T12:39:23;100548.91;;;-2.44;61.19
54122;BME280;40029;58.708;50.190;2024-03-06T12:41:55;100547.56;;;-2.28;60.03
54122;BME280;40029;58.708;50.190;2024-03-06T12:44:27;100547.00;;;-2.53;61.02
54122;BME280;40029;58.708;50.190;2024-03-06T12:47:16;100554.94;;;-2.45;60.34
54122;BME280;40029;58.708;50.190;2024-03-06T12:49:48;100556.69;;;-2.79;61.28
54122;BME280;40029;58.708;50.190;2024-03-06T12:52:19;100556.09;;;-2.68;61.05
54122;BME280;40029;58.708;50.190;2024-03-06T12:54:50;100555.59;;;-2.88;62.00
54122;BME280;40029;58.708;50.190;2024-03-06T12:57:21;100554.38;;;-3.03;62.64
54122;BME280;40029;58.708;50.190;2024-03-06T13:00:12;100559.03;;;-2.89;62.62
54122;BME280;40029;58.708;50.190;2024-03-06T13:02:49;100555.41;;;-2.96;62.11
54122;BME280;40029;58.708;50.190;2024-03-06T13:05:23;100551.53;;;-3.12;62.95
54122;BME280;40029;58.708;50.190;2024-03-06T13:08:13;100560.16;;;-3.13;62.63
54122;BME280;40029;58.708;50.190;2024-03-06T13:11:03;100558.09;;;-3.25;63.20
54122;BME280;40029;58.708;50.190;2024-03-06T13:13:53;100558.00;;;-3.30;62.63
54122;BME280;40029;58.708;50.190;2024-03-06T13:16:24;100553.03;;;-3.22;62.67
54122;BME280;40029;58.708;50.190;2024-03-06T13:18:56;100549.63;;;-3.21;63.10
54122;BME280;40029;58.708;50.190;2024-03-06T13:21:28;100549.88;;;-3.10;62.82